KAP111 KMVY-KBOS
Flight info
| Callsign | KAP111 |
|---|---|
| Flight time | 0h -7m |
| Altitude | 9000 |
| Route | MVY MVY017 FREDO/N0235F080 |
| Aircraft | C402/L-SDFR/C |
Departure
| Time | 2026-04-19 05:26 |
|---|---|
| Airport | Martha's Vineyard Airport (KMVY) |
Arrival
| Time | 2026-04-19 05:18 |
|---|---|
| Airport | Boston Logan International Airport (KBOS) |
| Time | Latitude | Longitude | Altitude | Speed | Heading |
|---|---|---|---|---|---|
| 2026-04-19 05:06 | 41.38963 | -70.61276 | 62 ft | 0 kts | 220° |
| 2026-04-19 05:18 | 42.36528 | -71.01530 | 62 ft | 0 kts | 301° |
| 2026-04-19 05:20 | 41.38976 | -70.61324 | 60 ft | 0 kts | 328° |
| 2026-04-19 05:22 | 41.38987 | -70.61339 | 59 ft | 5 kts | 280° |
| 2026-04-19 05:22 | 41.38948 | -70.61412 | 57 ft | 12 kts | 224° |
| 2026-04-19 05:23 | 41.38860 | -70.61515 | 63 ft | 23 kts | 221° |
| 2026-04-19 05:23 | 41.38762 | -70.61640 | 59 ft | 14 kts | 222° |
| 2026-04-19 05:23 | 41.38670 | -70.61747 | 61 ft | 19 kts | 220° |
| 2026-04-19 05:23 | 41.38609 | -70.61818 | 63 ft | 6 kts | 271° |
| 2026-04-19 05:24 | 41.38644 | -70.61887 | 63 ft | 12 kts | 310° |
| 2026-04-19 05:24 | 41.38686 | -70.61916 | 62 ft | 0 kts | 69° |
| 2026-04-19 05:24 | 41.38690 | -70.61911 | 64 ft | 1 kts | 37° |
| 2026-04-19 05:24 | 41.38697 | -70.61904 | 64 ft | 7 kts | 35° |
| 2026-04-19 05:25 | 41.38827 | -70.61741 | 64 ft | 55 kts | 40° |
| 2026-04-19 05:25 | 41.39274 | -70.61244 | 81 ft | 106 kts | 40° |
| 2026-04-19 05:25 | 41.39896 | -70.60546 | 268 ft | 126 kts | 40° |
| 2026-04-19 05:25 | 41.40590 | -70.59785 | 579 ft | 134 kts | 39° |
| 2026-04-19 05:26 | 41.41336 | -70.59005 | 926 ft | 135 kts | 35° |
| 2026-04-19 05:26 | 41.42233 | -70.58562 | 1218 ft | 145 kts | 8° |
| 2026-04-19 05:26 | 41.43257 | -70.58394 | 1468 ft | 152 kts | 5° |
| 2026-04-19 05:26 | 41.44171 | -70.58175 | 2155 ft | 125 kts | 12° |
| 2026-04-19 05:27 | 41.45149 | -70.57989 | 2246 ft | 150 kts | 359° |
| 2026-04-19 05:27 | 41.46174 | -70.58138 | 2527 ft | 151 kts | 346° |
| 2026-04-19 05:27 | 41.47220 | -70.58403 | 2830 ft | 151 kts | 346° |
| 2026-04-19 05:27 | 41.48251 | -70.58648 | 3146 ft | 150 kts | 346° |
| 2026-04-19 05:28 | 41.49276 | -70.58875 | 3471 ft | 149 kts | 346° |
| 2026-04-19 05:28 | 41.50294 | -70.59092 | 3782 ft | 148 kts | 346° |
| 2026-04-19 05:28 | 41.51305 | -70.59303 | 4091 ft | 146 kts | 344° |
| 2026-04-19 05:28 | 41.52188 | -70.59879 | 4387 ft | 141 kts | 323° |
| 2026-04-19 05:29 | 41.53106 | -70.60356 | 4695 ft | 145 kts | 345° |
| 2026-04-19 05:29 | 41.54127 | -70.60391 | 5007 ft | 147 kts | 355° |
| 2026-04-19 05:29 | 41.55156 | -70.60350 | 5285 ft | 149 kts | 356° |
| 2026-04-19 05:29 | 41.56191 | -70.60291 | 5567 ft | 149 kts | 356° |
| 2026-04-19 05:30 | 41.57238 | -70.60228 | 5832 ft | 151 kts | 356° |
| 2026-04-19 05:30 | 41.58291 | -70.60165 | 6101 ft | 152 kts | 356° |
| 2026-04-19 05:30 | 41.59349 | -70.60101 | 6371 ft | 152 kts | 355° |
| 2026-04-19 05:30 | 41.60403 | -70.60037 | 6624 ft | 152 kts | 355° |
| 2026-04-19 05:31 | 41.61457 | -70.59975 | 6869 ft | 151 kts | 355° |
| 2026-04-19 05:31 | 41.62513 | -70.59912 | 7082 ft | 152 kts | 355° |
| 2026-04-19 05:31 | 41.63572 | -70.59849 | 7302 ft | 152 kts | 355° |
| 2026-04-19 05:31 | 41.64631 | -70.59785 | 7528 ft | 152 kts | 355° |
| 2026-04-19 05:32 | 41.65688 | -70.59722 | 7751 ft | 152 kts | 355° |
| 2026-04-19 05:32 | 41.66388 | -70.59680 | 7891 ft | 152 kts | 355° |
| 2026-04-19 05:32 | 41.67456 | -70.59616 | 8116 ft | 151 kts | 355° |
| 2026-04-19 05:32 | 41.68508 | -70.59554 | 8334 ft | 151 kts | 355° |
| 2026-04-19 05:33 | 41.69557 | -70.59492 | 8528 ft | 151 kts | 355° |
| 2026-04-19 05:33 | 41.70603 | -70.59429 | 8731 ft | 150 kts | 355° |
| 2026-04-19 05:33 | 41.71638 | -70.59367 | 8920 ft | 148 kts | 355° |
| 2026-04-19 05:33 | 41.72665 | -70.59306 | 9034 ft | 151 kts | 355° |
| 2026-04-19 05:34 | 41.73740 | -70.59243 | 9034 ft | 158 kts | 355° |
| 2026-04-19 05:34 | 41.74851 | -70.59175 | 9022 ft | 164 kts | 355° |
| 2026-04-19 05:34 | 41.76053 | -70.59112 | 9019 ft | 179 kts | 356° |
| 2026-04-19 05:34 | 41.77337 | -70.59029 | 9035 ft | 189 kts | 356° |
| 2026-04-19 05:35 | 41.78673 | -70.58944 | 9033 ft | 195 kts | 356° |
| 2026-04-19 05:35 | 41.80044 | -70.58860 | 9036 ft | 199 kts | 356° |
| 2026-04-19 05:35 | 41.81437 | -70.58774 | 9010 ft | 201 kts | 356° |
| 2026-04-19 05:35 | 41.82842 | -70.58690 | 9011 ft | 203 kts | 357° |
| 2026-04-19 05:36 | 41.84256 | -70.58604 | 9007 ft | 204 kts | 356° |
| 2026-04-19 05:36 | 41.85674 | -70.58519 | 9009 ft | 204 kts | 356° |
| 2026-04-19 05:36 | 41.87092 | -70.58432 | 9008 ft | 204 kts | 356° |
| 2026-04-19 05:36 | 41.88511 | -70.58347 | 9007 ft | 205 kts | 356° |
| 2026-04-19 05:37 | 41.89936 | -70.58261 | 9005 ft | 205 kts | 356° |
| 2026-04-19 05:37 | 41.91355 | -70.58177 | 9008 ft | 204 kts | 356° |
| 2026-04-19 05:37 | 41.92772 | -70.58092 | 9004 ft | 204 kts | 357° |
| 2026-04-19 05:37 | 41.94186 | -70.58006 | 9013 ft | 203 kts | 356° |
| 2026-04-19 05:38 | 41.95602 | -70.57921 | 9008 ft | 204 kts | 356° |
| 2026-04-19 05:38 | 41.96916 | -70.58344 | 8991 ft | 191 kts | 319° |
| 2026-04-19 05:38 | 41.97748 | -70.59669 | 8996 ft | 184 kts | 296° |
| 2026-04-19 05:38 | 41.98337 | -70.61184 | 9002 ft | 183 kts | 293° |
| 2026-04-19 05:39 | 41.99056 | -70.62597 | 8999 ft | 190 kts | 316° |
| 2026-04-19 05:39 | 42.00338 | -70.63153 | 9011 ft | 203 kts | 351° |
| 2026-04-19 05:39 | 42.01691 | -70.63479 | 9002 ft | 193 kts | 325° |
| 2026-04-19 05:39 | 42.02675 | -70.64657 | 8853 ft | 189 kts | 310° |
| 2026-04-19 05:40 | 42.03665 | -70.65820 | 8572 ft | 191 kts | 316° |
| 2026-04-19 05:40 | 42.04743 | -70.66891 | 8264 ft | 194 kts | 319° |
| 2026-04-19 05:40 | 42.05846 | -70.67952 | 7963 ft | 196 kts | 319° |
| 2026-04-19 05:40 | 42.06955 | -70.69030 | 7629 ft | 198 kts | 319° |
| 2026-04-19 05:41 | 42.08116 | -70.70166 | 7051 ft | 210 kts | 319° |
| 2026-04-19 05:41 | 42.09364 | -70.71390 | 6465 ft | 230 kts | 320° |
| 2026-04-19 05:41 | 42.10691 | -70.72683 | 5842 ft | 240 kts | 320° |
| 2026-04-19 05:41 | 42.12062 | -70.74019 | 5231 ft | 246 kts | 320° |
| 2026-04-19 05:42 | 42.13457 | -70.75381 | 4604 ft | 249 kts | 321° |
| 2026-04-19 05:42 | 42.14856 | -70.76751 | 4121 ft | 246 kts | 321° |
| 2026-04-19 05:42 | 42.16210 | -70.78073 | 3969 ft | 235 kts | 320° |
| 2026-04-19 05:42 | 42.17516 | -70.79354 | 3825 ft | 230 kts | 320° |
| 2026-04-19 05:43 | 42.18797 | -70.80614 | 3701 ft | 226 kts | 320° |
| 2026-04-19 05:43 | 42.20062 | -70.81854 | 3606 ft | 224 kts | 320° |
| 2026-04-19 05:43 | 42.21318 | -70.83087 | 3507 ft | 223 kts | 320° |
| 2026-04-19 05:43 | 42.22544 | -70.84370 | 3400 ft | 221 kts | 313° |
| 2026-04-19 05:44 | 42.23637 | -70.85830 | 3284 ft | 222 kts | 311° |
| 2026-04-19 05:44 | 42.24748 | -70.87290 | 3113 ft | 224 kts | 312° |
| 2026-04-19 05:44 | 42.25877 | -70.88757 | 2966 ft | 226 kts | 312° |
| 2026-04-19 05:44 | 42.27001 | -70.90231 | 2855 ft | 225 kts | 311° |
| 2026-04-19 05:45 | 42.28125 | -70.91709 | 2717 ft | 226 kts | 311° |
| 2026-04-19 05:45 | 42.29237 | -70.93169 | 2461 ft | 207 kts | 312° |
| 2026-04-19 05:45 | 42.30100 | -70.94278 | 2258 ft | 141 kts | 310° |
| 2026-04-19 05:45 | 42.30750 | -70.95147 | 1952 ft | 126 kts | 308° |
| 2026-04-19 05:46 | 42.31360 | -70.95963 | 1637 ft | 119 kts | 309° |
| 2026-04-19 05:46 | 42.31939 | -70.96735 | 1314 ft | 114 kts | 311° |
| 2026-04-19 05:46 | 42.32495 | -70.97471 | 961 ft | 110 kts | 314° |
| 2026-04-19 05:46 | 42.33034 | -70.98183 | 613 ft | 107 kts | 316° |
| 2026-04-19 05:47 | 42.33551 | -70.98875 | 391 ft | 98 kts | 315° |
| 2026-04-19 05:47 | 42.34024 | -70.99559 | 285 ft | 100 kts | 314° |
| 2026-04-19 05:47 | 42.34493 | -71.00229 | 197 ft | 98 kts | 313° |
| 2026-04-19 05:47 | 42.34919 | -71.00944 | 35 ft | 95 kts | 307° |
| 2026-04-19 05:48 | 42.35218 | -71.01496 | 23 ft | 49 kts | 306° |
| 2026-04-19 05:48 | 42.35355 | -71.01754 | 22 ft | 28 kts | 303° |
| 2026-04-19 05:48 | 42.35454 | -71.01937 | 22 ft | 21 kts | 307° |
| 2026-04-19 05:48 | 42.35510 | -71.01973 | 21 ft | 5 kts | 16° |
| 2026-04-19 05:49 | 42.35528 | -71.01961 | 21 ft | 1 kts | 33° |
| 2026-04-19 05:49 | 42.35548 | -71.01926 | 23 ft | 13 kts | 69° |
| 2026-04-19 05:49 | 42.35580 | -71.01742 | 21 ft | 14 kts | 76° |
| 2026-04-19 05:49 | 42.35638 | -71.01671 | 21 ft | 10 kts | 20° |
| 2026-04-19 05:50 | 42.35692 | -71.01646 | 21 ft | 7 kts | 19° |
| 2026-04-19 05:50 | 42.35738 | -71.01621 | 21 ft | 12 kts | 19° |
| 2026-04-19 05:50 | 42.35870 | -71.01558 | 21 ft | 24 kts | 21° |
| 2026-04-19 05:50 | 42.36017 | -71.01487 | 21 ft | 20 kts | 19° |
| 2026-04-19 05:51 | 42.36136 | -71.01432 | 21 ft | 16 kts | 17° |
| 2026-04-19 05:51 | 42.36230 | -71.01385 | 21 ft | 13 kts | 19° |
| 2026-04-19 05:51 | 42.36308 | -71.01347 | 21 ft | 11 kts | 19° |
| 2026-04-19 05:51 | 42.36355 | -71.01358 | 21 ft | 5 kts | 305° |
| 2026-04-19 05:52 | 42.36378 | -71.01421 | 21 ft | 8 kts | 290° |
| 2026-04-19 05:52 | 42.36397 | -71.01478 | 21 ft | 5 kts | 299° |
| 2026-04-19 05:52 | 42.36413 | -71.01515 | 21 ft | 4 kts | 301° |
| 2026-04-19 05:52 | 42.36428 | -71.01547 | 21 ft | 3 kts | 301° |
| 2026-04-19 05:53 | 42.36443 | -71.01582 | 21 ft | 8 kts | 301° |
| 2026-04-19 05:53 | 42.36484 | -71.01590 | 23 ft | 7 kts | 31° |
| 2026-04-19 05:53 | 42.36518 | -71.01563 | 21 ft | 3 kts | 36° |
| 2026-04-19 05:53 | 42.36519 | -71.01549 | 21 ft | 4 kts | 104° |
| 2026-04-19 05:54 | 42.36507 | -71.01543 | 21 ft | 1 kts | 211° |
| 2026-04-19 05:54 | 42.36507 | -71.01550 | 23 ft | 2 kts | 305° |